Britney Lee — WDC2895 — position and weather

sailwx.info

Track history (hours):
 
Tides and Currents Weather Stations Pressure Air Temp Water Temp Dewpoint Dewpoint Depression Visibility Wind Speed Wind Dir Waves Ship Positions

Britney Lee

Owner: Western Rivers Boat Management, Inc., Paducah, KY. More information available from US FCC via Universal Licensing System and Coast Guard Vessel Documentation Center.

Last reported at 2016-Jun-22 11:21 UTC. Time now 2016-Jun-28 18:54 UTC.
Position N 32°49' W 091°09'.

Length 44 m; draft 3 m.

Type: Tow > 200 m length. MMSI: 367129650.

Date/timePositionNaut miles runAvg speedWind from/ knotsBaromVisibWave heightAir tempDewpointWater temp
2016-Jun-22 11:21N 32°49' W 091°09'4 4.8
2016-Jun-22 10:33N 32°45' W 091°09'5 4.8
2016-Jun-22 09:33N 32°44' W 091°04'5 4.4
2016-Jun-22 08:30N 32°40' W 091°07'4 4.2
2016-Jun-22 07:33N 32°36' W 091°09'5 4.7
2016-Jun-22 06:33N 32°32' W 091°06'5 4.9
2016-Jun-22 05:33N 32°27' W 091°05'5 5.0
2016-Jun-22 04:33N 32°25' W 090°60'4 4.2
2016-Jun-22 03:33N 32°21' W 090°59'0 0.4
2016-Jun-22 02:33N 32°21' W 090°58'0 0.0
2016-Jun-22 01:33N 32°21' W 090°58'0 0.4
2016-Jun-22 00:33N 32°21' W 090°58'4 4.0
2016-Jun-21 23:33N 32°19' W 090°54'5 4.8
2016-Jun-21 22:33N 32°15' W 090°58'5 5.1
2016-Jun-21 21:32N 32°10' W 090°60'4 4.1
2016-Jun-21 20:33N 32°07' W 091°03'  
2016-Jun-18 21:32N 29°59' W 090°24'6 1.9
2016-Jun-18 18:14N 29°58' W 090°17'0 0.5
2016-Jun-18 17:21N 29°58' W 090°17'5 5.8
2016-Jun-18 16:33N 29°55' W 090°12'4 4.4
2016-Jun-18 15:33N 29°55' W 090°07'6 5.1
2016-Jun-18 14:17N 29°56' W 090°00'12 1.1
2016-Jun-18 03:29N 29°44' W 089°60'6 6.4
2016-Jun-18 02:33N 29°50' W 089°60'6 5.1
2016-Jun-18 01:25N 29°53' W 089°54'6 6.7
2016-Jun-18 00:33N 29°56' W 089°60'6 5.7
2016-Jun-17 23:33N 29°55' W 090°06'4 3.9
2016-Jun-17 22:33N 29°57' W 090°09'1 0.6
2016-Jun-17 21:33N 29°57' W 090°10'132 2.7
2016-Jun-15 20:04N 31°59' W 091°10'4 7.2
2016-Jun-15 19:33N 31°59' W 091°06'7 6.0
2016-Jun-15 18:28N 32°06' W 091°06'4 4.6
2016-Jun-15 17:33N 32°07' W 091°01'8 7.5
2016-Jun-15 16:33N 32°15' W 090°59'7 6.7
2016-Jun-15 15:33N 32°20' W 090°54'5 5.5
2016-Jun-15 14:33N 32°24' W 090°59'7 7.2
2016-Jun-15 13:33N 32°28' W 091°06'7 6.7
2016-Jun-15 12:33N 32°35' W 091°07'  
Track history (hours):
 
Tides and Currents Weather Stations Pressure Air Temp Water Temp Dewpoint Dewpoint Depression Visibility Wind Speed Wind Dir Waves Ship Positions

Britney Lee

Owner: Western Rivers Boat Management, Inc., Paducah, KY. More information available from US FCC via Universal Licensing System and Coast Guard Vessel Documentation Center.

Last reported at 2016-Jun-22 11:21 UTC. Time now 2016-Jun-28 18:54 UTC.
Position N 32°49' W 091°09'.

Length 44 m; draft 3 m.

Type: Tow > 200 m length. MMSI: 367129650.

Date/timePositionNaut miles runAvg speedWind from/ knotsBaromVisibWave heightAir tempDewpointWater temp
2016-Jun-22 11:21N 32°49' W 091°09'4 4.8
2016-Jun-22 10:33N 32°45' W 091°09'5 4.8
2016-Jun-22 09:33N 32°44' W 091°04'5 4.4
2016-Jun-22 08:30N 32°40' W 091°07'4 4.2
2016-Jun-22 07:33N 32°36' W 091°09'5 4.7
2016-Jun-22 06:33N 32°32' W 091°06'5 4.9
2016-Jun-22 05:33N 32°27' W 091°05'5 5.0
2016-Jun-22 04:33N 32°25' W 090°60'4 4.2
2016-Jun-22 03:33N 32°21' W 090°59'0 0.4
2016-Jun-22 02:33N 32°21' W 090°58'0 0.0
2016-Jun-22 01:33N 32°21' W 090°58'0 0.4
2016-Jun-22 00:33N 32°21' W 090°58'4 4.0
2016-Jun-21 23:33N 32°19' W 090°54'5 4.8
2016-Jun-21 22:33N 32°15' W 090°58'5 5.1
2016-Jun-21 21:32N 32°10' W 090°60'4 4.1
2016-Jun-21 20:33N 32°07' W 091°03'  
2016-Jun-18 21:32N 29°59' W 090°24'6 1.9
2016-Jun-18 18:14N 29°58' W 090°17'0 0.5
2016-Jun-18 17:21N 29°58' W 090°17'5 5.8
2016-Jun-18 16:33N 29°55' W 090°12'4 4.4
2016-Jun-18 15:33N 29°55' W 090°07'6 5.1
2016-Jun-18 14:17N 29°56' W 090°00'12 1.1
2016-Jun-18 03:29N 29°44' W 089°60'6 6.4
2016-Jun-18 02:33N 29°50' W 089°60'6 5.1
2016-Jun-18 01:25N 29°53' W 089°54'6 6.7
2016-Jun-18 00:33N 29°56' W 089°60'6 5.7
2016-Jun-17 23:33N 29°55' W 090°06'4 3.9
2016-Jun-17 22:33N 29°57' W 090°09'1 0.6
2016-Jun-17 21:33N 29°57' W 090°10'132 2.7
2016-Jun-15 20:04N 31°59' W 091°10'4 7.2
2016-Jun-15 19:33N 31°59' W 091°06'7 6.0
2016-Jun-15 18:28N 32°06' W 091°06'4 4.6
2016-Jun-15 17:33N 32°07' W 091°01'8 7.5
2016-Jun-15 16:33N 32°15' W 090°59'7 6.7
2016-Jun-15 15:33N 32°20' W 090°54'5 5.5
2016-Jun-15 14:33N 32°24' W 090°59'7 7.2
2016-Jun-15 13:33N 32°28' W 091°06'7 6.7
2016-Jun-15 12:33N 32°35' W 091°07'  

Dump ship's entire track history